Date,TemperatureHighF,TemperatureAvgF,TemperatureLowF,DewpointHighF,DewpointAvgF,DewpointLowF,HumidityHigh,HumidityAvg,HumidityLow,PressureMaxIn,PressureMinIn,WindSpeedMaxMPH,WindSpeedAvgMPH,GustSpeedMaxMPH,PrecipitationSumIn
2013-12-1,35,32,28,-100,-100,-100,0,0,100,0.00,40.00,0,-999,0,0.00
2013-12-2,39,36,33,-100,-100,-100,0,0,100,0.00,40.00,0,-999,0,0.00
2013-12-3,39,35,30,-100,-100,-100,0,0,100,0.00,40.00,0,-999,0,0.00
2013-12-4,39,34,29,-100,-100,-100,0,0,100,0.00,40.00,0,-999,0,0.00
2013-12-5,36,34,28,-100,-100,-100,0,0,100,0.00,40.00,0,-999,0,0.02
2013-12-6,44,40,36,-100,-100,-100,0,0,100,0.00,40.00,0,-999,0,0.05
2013-12-7,35,31,27,-100,-100,-100,0,0,100,0.00,40.00,0,-999,0,0.01
2013-12-8,28,25,21,-100,-100,-100,0,0,100,0.00,40.00,0,-999,0,0.00
2013-12-9,32,25,22,-100,-100,-100,0,0,100,0.00,40.00,0,-999,0,0.10
2013-12-10,34,30,22,-100,-100,-100,0,0,100,0.00,40.00,0,-999,0,0.05
2013-12-11,29,24,20,-100,-100,-100,0,0,100,0.00,40.00,0,-999,0,0.00
2013-12-12,20,15,10,-100,-100,-100,0,0,100,0.00,40.00,0,-999,0,0.00
2013-12-13,24,16,7,-100,-100,-100,0,0,100,0.00,40.00,0,-999,0,0.00
2013-12-14,13,8,3,-100,-100,-100,0,0,100,0.00,40.00,0,-999,0,0.02
2013-12-15,28,19,11,-100,-100,-100,0,0,100,0.00,40.00,0,-999,0,0.30
2013-12-16,23,19,8,-100,-100,-100,0,0,100,0.00,40.00,0,-999,0,0.01
2013-12-17,14,7,-3,-100,-100,-100,0,0,100,0.00,40.00,0,-999,0,0.07
2013-12-18,30,22,14,-100,-100,-100,0,0,100,0.00,40.00,0,-999,0,0.17
2013-12-19,37,32,26,-100,-100,-100,0,0,100,0.00,40.00,0,-999,0,0.00
2013-12-20,38,34,32,-100,-100,-100,0,0,100,0.00,40.00,0,-999,0,0.00
2013-12-21,38,35,33,-100,-100,-100,0,0,100,0.00,40.00,0,-999,0,0.04
2013-12-22,39,33,30,-100,-100,-100,0,0,100,0.00,40.00,0,-999,0,0.23
2013-12-23,35,31,29,-100,-100,-100,0,0,100,0.00,40.00,0,-999,0,0.20
2013-12-24,35,27,18,-100,-100,-100,0,0,100,0.00,40.00,0,-999,0,0.01
2013-12-25,19,12,6,-100,-100,-100,0,0,100,0.00,40.00,0,-999,0,0.00
2013-12-26,24,19,11,-100,-100,-100,0,0,100,0.00,40.00,0,-999,0,0.11
2013-12-27,32,28,22,-100,-100,-100,0,0,100,0.00,40.00,0,-999,0,0.02
2013-12-28,39,32,19,-100,-100,-100,0,0,100,0.00,40.00,0,-999,0,0.00
2013-12-29,35,32,29,-100,-100,-100,0,0,100,0.00,40.00,0,-999,0,0.34
2013-12-30,37,27,9,-100,-100,-100,0,0,100,0.00,40.00,0,-999,0,0.88
2013-12-31,16,9,2,-100,-100,-100,0,0,100,0.00,40.00,0,-999,0,0.01